createdAt,value
2024-02-24T00:01:22.712Z,32.24
2024-02-24T00:03:24.646Z,32.37
2024-02-24T00:05:28.847Z,32.12
2024-02-24T00:07:30.364Z,31.98
2024-02-24T00:09:31.911Z,32.38
2024-02-24T00:11:33.780Z,32.38
2024-02-24T00:13:38.354Z,32.38
2024-02-24T00:15:40.680Z,32.32
2024-02-24T00:17:42.471Z,32.42
2024-02-24T00:19:43.967Z,32.19
2024-02-24T00:21:45.551Z,31.96
2024-02-24T00:23:47.294Z,32.07
2024-02-24T00:25:48.735Z,32.25
2024-02-24T00:27:50.265Z,32.07
2024-02-24T00:29:54.876Z,32.38
2024-02-24T00:31:56.453Z,32.09
2024-02-24T00:33:57.917Z,31.99
2024-02-24T00:35:59.537Z,32.15
2024-02-24T00:38:01.058Z,32.50
2024-02-24T00:40:02.702Z,32.25
2024-02-24T00:42:08.395Z,32.28
2024-02-24T00:44:10.944Z,32.19
2024-02-24T00:46:12.590Z,32.33
2024-02-24T00:48:14.100Z,32.25
2024-02-24T00:50:16.273Z,32.18
2024-02-24T00:52:18.007Z,32.41
2024-02-24T00:54:19.559Z,32.19
2024-02-24T00:56:22.507Z,32.18
2024-02-24T00:58:24.125Z,32.32
2024-02-24T01:00:25.717Z,32.11
2024-02-24T01:02:27.617Z,32.16
2024-02-24T01:04:30.053Z,32.23
2024-02-24T01:06:31.540Z,32.20
2024-02-24T01:08:33.072Z,32.03
2024-02-24T01:10:34.889Z,32.03
2024-02-24T01:12:36.340Z,32.31
2024-02-24T01:14:38.045Z,32.05
2024-02-24T01:16:45.370Z,32.27
2024-02-24T01:18:47.027Z,32.00
2024-02-24T01:20:49.895Z,32.26
2024-02-24T01:22:54.743Z,32.04
2024-02-24T01:24:56.450Z,31.87
2024-02-24T01:26:57.972Z,32.03
2024-02-24T01:28:59.466Z,32.13
2024-02-24T01:31:03.903Z,32.18
2024-02-24T01:33:05.967Z,31.96
2024-02-24T01:35:09.220Z,31.85
2024-02-24T01:37:10.863Z,31.91
2024-02-24T01:39:12.532Z,31.98
2024-02-24T01:41:14.168Z,31.97
2024-02-24T01:43:24.742Z,32.07
2024-02-24T01:45:26.464Z,32.10
2024-02-24T01:47:28.329Z,31.74
2024-02-24T01:49:29.929Z,31.72
2024-02-24T01:51:31.487Z,32.05
2024-02-24T01:53:33.087Z,32.10
2024-02-24T01:55:34.643Z,32.13
2024-02-24T01:57:41.297Z,32.05
2024-02-24T01:59:43.054Z,31.75
2024-02-24T02:01:45.089Z,31.85
2024-02-24T02:03:46.697Z,32.07
2024-02-24T02:05:48.807Z,32.10
2024-02-24T02:07:50.445Z,31.83
2024-02-24T02:09:55.310Z,32.08
2024-02-24T02:12:03.169Z,32.03
2024-02-24T02:14:06.340Z,31.78
2024-02-24T02:16:08.328Z,31.87
2024-02-24T02:18:10.472Z,32.00
2024-02-24T02:20:12.039Z,31.78
2024-02-24T02:22:17.374Z,32.01
2024-02-24T02:24:18.952Z,31.78
2024-02-24T02:26:20.934Z,31.59
2024-02-24T02:28:22.424Z,31.52
2024-02-24T02:30:24.238Z,31.94
2024-02-24T02:32:25.920Z,31.67
2024-02-24T02:34:27.733Z,31.71
2024-02-24T02:36:29.235Z,31.89
2024-02-24T02:38:30.774Z,31.58
2024-02-24T02:40:32.264Z,31.59
2024-02-24T02:42:34.308Z,31.43
2024-02-24T02:44:35.853Z,31.75
2024-02-24T02:46:37.463Z,31.55
2024-02-24T02:48:39.107Z,31.69
2024-02-24T02:50:40.790Z,31.84
2024-02-24T02:52:42.459Z,31.57
2024-02-24T02:54:44.087Z,31.67
2024-02-24T02:56:46.000Z,31.72
2024-02-24T02:58:50.294Z,31.80
2024-02-24T03:00:51.984Z,31.78
2024-02-24T03:02:53.608Z,31.76
2024-02-24T03:04:55.331Z,31.72
2024-02-24T03:06:56.792Z,31.74
2024-02-24T03:08:58.319Z,31.67
2024-02-24T03:11:00.690Z,31.56
2024-02-24T03:13:02.294Z,31.63
2024-02-24T03:15:07.257Z,31.46
2024-02-24T03:17:08.880Z,31.75
2024-02-24T03:19:10.604Z,31.68
2024-02-24T03:21:12.099Z,31.69
2024-02-24T03:23:14.383Z,31.69
2024-02-24T03:25:16.158Z,31.53
2024-02-24T03:27:17.662Z,31.52
2024-02-24T03:29:19.482Z,31.36
2024-02-24T03:31:21.293Z,31.61
2024-02-24T03:33:22.898Z,31.71
2024-02-24T03:35:24.467Z,31.34
2024-02-24T03:37:25.995Z,31.26
2024-02-24T03:39:27.566Z,31.66
2024-02-24T03:41:32.874Z,31.49
2024-02-24T03:43:34.891Z,31.44
2024-02-24T03:45:36.365Z,31.39
2024-02-24T03:47:37.960Z,31.55
2024-02-24T03:49:39.861Z,31.69
2024-02-24T03:51:41.351Z,31.47
2024-02-24T03:53:42.906Z,31.57
2024-02-24T03:55:44.554Z,31.35
2024-02-24T03:57:46.264Z,31.31
2024-02-24T03:59:47.764Z,31.46
2024-02-24T04:01:49.456Z,31.60
2024-02-24T04:03:50.916Z,31.26
2024-02-24T04:05:52.600Z,31.62
2024-02-24T04:07:54.461Z,31.32
2024-02-24T04:09:55.912Z,31.54
2024-02-24T04:11:57.888Z,31.32
2024-02-24T04:13:59.780Z,31.63
2024-02-24T04:16:01.299Z,31.49
2024-02-24T04:18:04.539Z,31.47
2024-02-24T04:20:06.435Z,31.48
2024-02-24T04:22:07.950Z,31.36
2024-02-24T04:24:09.466Z,31.32
2024-02-24T04:26:10.903Z,31.52
2024-02-24T04:28:13.879Z,31.54
2024-02-24T04:30:15.504Z,31.33
2024-02-24T04:32:16.977Z,31.46
2024-02-24T04:34:18.667Z,31.39
2024-02-24T04:36:20.117Z,31.17
2024-02-24T04:38:21.751Z,31.51
2024-02-24T04:40:23.233Z,31.22
2024-02-24T04:42:25.701Z,31.42
2024-02-24T04:44:27.274Z,31.27
2024-02-24T04:46:28.882Z,31.30
2024-02-24T04:48:30.572Z,31.43
2024-02-24T04:50:32.610Z,31.49
2024-02-24T04:52:34.522Z,31.11
2024-02-24T04:54:36.077Z,31.42
2024-02-24T04:56:37.503Z,31.19
2024-02-24T04:58:39.025Z,31.47
2024-02-24T05:00:40.745Z,31.47
2024-02-24T05:02:42.332Z,31.22
2024-02-24T05:04:44.143Z,31.13
2024-02-24T05:06:45.729Z,31.15
2024-02-24T05:08:47.275Z,31.44
2024-02-24T05:10:48.813Z,31.19
2024-02-24T05:12:50.358Z,31.34
2024-02-24T05:14:51.946Z,31.12
2024-02-24T05:16:54.426Z,31.50
2024-02-24T05:18:56.033Z,30.96
2024-02-24T05:20:59.067Z,31.43
2024-02-24T05:23:01.832Z,31.11
2024-02-24T05:25:03.588Z,31.39
2024-02-24T05:27:05.623Z,31.40
2024-02-24T05:29:07.432Z,31.29
2024-02-24T05:31:08.953Z,31.41
2024-02-24T05:33:10.712Z,31.19
2024-02-24T05:35:12.556Z,31.30
2024-02-24T05:37:14.044Z,31.07
2024-02-24T05:39:15.488Z,31.30
2024-02-24T05:41:17.140Z,31.38
2024-02-24T05:43:18.682Z,31.08
2024-02-24T05:45:20.644Z,31.16
2024-02-24T05:47:22.417Z,31.43
2024-02-24T05:49:24.161Z,31.39
2024-02-24T05:51:25.998Z,31.31
2024-02-24T05:53:27.619Z,31.13
2024-02-24T05:55:29.246Z,31.35
2024-02-24T05:57:31.221Z,31.35
2024-02-24T05:59:32.778Z,31.04
2024-02-24T06:01:34.346Z,31.08
2024-02-24T06:03:36.433Z,30.91
2024-02-24T06:05:38.137Z,31.20
2024-02-24T06:07:40.290Z,31.03
2024-02-24T06:09:41.964Z,30.98
2024-02-24T06:11:43.572Z,31.14
2024-02-24T06:13:47.302Z,31.12
2024-02-24T06:15:48.759Z,31.26
2024-02-24T06:17:50.395Z,31.21
2024-02-24T06:19:51.904Z,31.22
2024-02-24T06:21:53.670Z,30.97
2024-02-24T06:23:56.251Z,30.96
2024-02-24T06:25:57.740Z,31.24
2024-02-24T06:27:59.779Z,31.00
2024-02-24T06:30:01.368Z,31.25
2024-02-24T06:32:02.860Z,31.22
2024-02-24T06:34:08.426Z,30.96
2024-02-24T06:36:10.577Z,31.22
2024-02-24T06:38:15.020Z,30.92
2024-02-24T06:40:25.649Z,31.13
2024-02-24T06:42:31.232Z,31.27
2024-02-24T06:44:33.158Z,30.96
2024-02-24T06:46:34.623Z,30.95
2024-02-24T06:48:36.143Z,31.30
2024-02-24T06:50:38.198Z,31.26
2024-02-24T06:52:39.982Z,30.91
2024-02-24T06:54:41.762Z,30.84
2024-02-24T06:56:43.348Z,31.22
2024-02-24T06:58:44.817Z,31.16
2024-02-24T07:00:46.400Z,31.12
2024-02-24T07:02:48.028Z,30.98
2024-02-24T07:04:50.348Z,31.25
2024-02-24T07:06:52.077Z,30.97
2024-02-24T07:08:53.717Z,31.27
2024-02-24T07:10:55.444Z,31.04
2024-02-24T07:12:57.218Z,30.78
2024-02-24T07:14:59.167Z,31.02
2024-02-24T07:17:00.719Z,30.91
2024-02-24T07:19:02.350Z,31.01
2024-02-24T07:21:04.518Z,30.83
2024-02-24T07:23:06.302Z,30.93
2024-02-24T07:25:09.813Z,30.96
2024-02-24T07:27:11.351Z,30.98
2024-02-24T07:29:12.832Z,31.10
2024-02-24T07:31:14.275Z,31.13
2024-02-24T07:33:15.932Z,31.17
2024-02-24T07:35:17.520Z,31.08
2024-02-24T07:37:19.127Z,30.92
2024-02-24T07:39:21.267Z,30.95
2024-02-24T07:41:22.953Z,30.92
2024-02-24T07:43:24.535Z,30.96
2024-02-24T07:45:28.992Z,31.20
2024-02-24T07:47:30.555Z,30.85
2024-02-24T07:49:32.170Z,30.79
2024-02-24T07:51:33.671Z,30.87
2024-02-24T07:53:35.158Z,31.17
2024-02-24T07:55:36.945Z,30.90
2024-02-24T07:57:38.609Z,30.96
2024-02-24T07:59:40.123Z,30.86
2024-02-24T08:01:41.659Z,30.78
2024-02-24T08:03:43.223Z,31.14
2024-02-24T08:05:44.947Z,31.02
2024-02-24T08:07:46.529Z,31.00
2024-02-24T08:09:48.161Z,31.11
2024-02-24T08:11:49.907Z,30.97
2024-02-24T08:13:51.519Z,31.02
2024-02-24T08:15:53.025Z,30.67
2024-02-24T08:17:54.723Z,30.72
2024-02-24T08:19:56.493Z,30.64
2024-02-24T08:21:57.982Z,30.97
2024-02-24T08:23:59.728Z,30.96
2024-02-24T08:26:01.345Z,30.87
2024-02-24T08:28:03.064Z,30.96
2024-02-24T08:30:05.216Z,30.96
2024-02-24T08:32:06.982Z,30.75
2024-02-24T08:34:08.720Z,30.71
2024-02-24T08:36:15.007Z,30.87
2024-02-24T08:38:18.592Z,31.11
2024-02-24T08:40:20.441Z,30.86
2024-02-24T08:42:21.875Z,31.08
2024-02-24T08:44:23.395Z,30.81
2024-02-24T08:46:25.146Z,30.80
2024-02-24T08:48:28.214Z,31.23
2024-02-24T08:50:29.990Z,31.13
2024-02-24T08:52:38.278Z,30.86
2024-02-24T08:54:44.676Z,31.15
2024-02-24T08:56:47.030Z,30.97
2024-02-24T08:58:48.916Z,31.08
2024-02-24T09:00:55.535Z,31.18
2024-02-24T09:02:57.662Z,31.19
2024-02-24T09:05:00.121Z,30.95
2024-02-24T09:07:01.607Z,31.36
2024-02-24T09:09:05.580Z,31.08
2024-02-24T09:11:07.362Z,30.93
2024-02-24T09:13:11.733Z,31.12
2024-02-24T09:15:13.476Z,31.14
2024-02-24T09:17:15.355Z,31.25
2024-02-24T09:19:18.392Z,31.33
2024-02-24T09:21:19.997Z,31.30
2024-02-24T09:23:21.533Z,31.28
2024-02-24T09:25:23.148Z,31.02
2024-02-24T09:27:24.623Z,31.23
2024-02-24T09:29:26.084Z,30.92
2024-02-24T09:31:29.231Z,31.22
2024-02-24T09:33:31.078Z,30.83
2024-02-24T09:35:32.794Z,30.95
2024-02-24T09:37:34.391Z,31.22
2024-02-24T09:39:36.066Z,31.20
2024-02-24T09:41:38.419Z,31.20
2024-02-24T09:43:40.538Z,31.01
2024-02-24T09:45:44.830Z,31.19
2024-02-24T09:47:46.473Z,31.25
2024-02-24T09:49:48.262Z,31.12
2024-02-24T09:51:51.849Z,31.29
2024-02-24T09:53:53.332Z,31.24
2024-02-24T09:55:55.111Z,31.13
2024-02-24T09:57:57.019Z,31.11
2024-02-24T09:59:59.749Z,30.83
2024-02-24T10:02:01.465Z,31.00
2024-02-24T10:04:03.220Z,30.90
2024-02-24T10:06:08.603Z,31.23
2024-02-24T10:08:12.185Z,31.27
2024-02-24T10:10:17.333Z,31.04
2024-02-24T10:12:18.984Z,31.10
2024-02-24T10:14:21.604Z,31.22
2024-02-24T10:16:26.405Z,30.84
2024-02-24T10:18:27.973Z,30.84
2024-02-24T10:20:30.215Z,30.72
2024-02-24T10:22:31.801Z,30.62
2024-02-24T10:24:35.226Z,30.62
2024-02-24T10:26:37.968Z,30.53
2024-02-24T10:28:40.976Z,30.44
2024-02-24T10:30:42.545Z,30.24
2024-02-24T10:32:44.212Z,30.64
2024-02-24T10:34:46.028Z,30.21
2024-02-24T10:36:50.805Z,30.47
2024-02-24T10:38:55.925Z,30.37
2024-02-24T10:41:00.460Z,30.12
2024-02-24T10:43:02.432Z,30.20
2024-02-24T10:45:07.666Z,30.31
2024-02-24T10:47:09.277Z,30.24
2024-02-24T10:49:11.140Z,30.35
2024-02-24T10:51:14.141Z,30.31
2024-02-24T10:53:17.798Z,30.23
2024-02-24T10:55:20.810Z,30.10
2024-02-24T10:57:22.658Z,30.26
2024-02-24T10:59:27.722Z,30.12
2024-02-24T11:01:29.453Z,29.87
2024-02-24T11:03:32.030Z,29.87
2024-02-24T11:05:34.322Z,29.78
2024-02-24T11:07:36.474Z,29.99
2024-02-24T11:09:39.505Z,29.75
2024-02-24T11:11:41.552Z,29.97
2024-02-24T11:13:56.036Z,30.06
2024-02-24T11:16:11.189Z,30.05
2024-02-24T11:18:12.926Z,30.24
2024-02-24T11:20:40.765Z,30.16
2024-02-24T11:22:43.651Z,29.80
2024-02-24T11:24:45.109Z,30.12
2024-02-24T11:26:46.627Z,29.98
2024-02-24T11:28:49.595Z,29.90
2024-02-24T11:30:54.401Z,29.83
2024-02-24T11:32:56.100Z,29.73
2024-02-24T11:34:57.738Z,30.13
2024-02-24T11:36:59.677Z,30.37
2024-02-24T11:39:02.557Z,29.96
2024-02-24T11:41:05.142Z,29.99
2024-02-24T11:43:06.722Z,30.02
2024-02-24T11:45:09.260Z,29.93
2024-02-24T11:47:10.817Z,29.69
2024-02-24T11:49:12.373Z,30.14
2024-02-24T11:51:14.376Z,30.25
2024-02-24T11:53:16.906Z,30.42
2024-02-24T11:55:18.396Z,30.78
2024-02-24T11:57:21.286Z,30.94
2024-02-24T11:59:22.846Z,30.66
2024-02-24T12:01:25.191Z,30.68
2024-02-24T12:03:26.804Z,30.66
2024-02-24T12:05:28.600Z,30.90
2024-02-24T12:07:30.241Z,30.86
2024-02-24T12:09:31.872Z,31.35
2024-02-24T12:11:36.190Z,31.30
2024-02-24T12:13:37.870Z,31.59
2024-02-24T12:15:40.112Z,31.26
2024-02-24T12:17:42.229Z,31.12
2024-02-24T12:19:43.899Z,30.68
2024-02-24T12:21:48.599Z,30.88
2024-02-24T12:23:50.119Z,30.54
2024-02-24T12:25:51.768Z,30.25
2024-02-24T12:27:53.240Z,30.32
2024-02-24T12:29:54.792Z,30.06
2024-02-24T12:31:57.185Z,30.03
2024-02-24T12:33:59.030Z,30.22
2024-02-24T12:36:03.736Z,30.10
2024-02-24T12:38:06.563Z,30.46
2024-02-24T12:40:08.738Z,30.28
2024-02-24T12:42:10.477Z,30.25
2024-02-24T12:44:12.097Z,30.01
2024-02-24T12:46:13.804Z,30.18
2024-02-24T12:48:15.302Z,29.90
2024-02-24T12:50:20.505Z,29.62
2024-02-24T12:52:22.001Z,29.81
2024-02-24T12:54:23.460Z,29.79
2024-02-24T12:56:25.134Z,29.45
2024-02-24T12:58:27.262Z,29.81
2024-02-24T13:00:32.064Z,29.77
2024-02-24T13:02:34.272Z,29.72
2024-02-24T13:04:36.098Z,29.97
2024-02-24T13:06:37.897Z,29.83
2024-02-24T13:08:40.690Z,29.91
2024-02-24T13:10:42.597Z,29.92
2024-02-24T13:12:44.600Z,29.88
2024-02-24T13:14:46.230Z,30.22
2024-02-24T13:16:50.508Z,30.25
2024-02-24T13:18:52.113Z,30.35
2024-02-24T13:20:53.889Z,30.23
2024-02-24T13:22:55.424Z,30.46
2024-02-24T13:24:57.047Z,30.36
2024-02-24T13:26:58.676Z,30.58
2024-02-24T13:29:00.211Z,30.34
2024-02-24T13:31:01.817Z,30.50
2024-02-24T13:33:03.583Z,30.71
2024-02-24T13:35:05.560Z,30.24
2024-02-24T13:37:08.624Z,30.49
2024-02-24T13:39:11.693Z,31.01
2024-02-24T13:41:13.515Z,30.90
2024-02-24T13:43:15.107Z,30.68
2024-02-24T13:45:16.683Z,31.43
2024-02-24T13:47:19.124Z,31.36
2024-02-24T13:49:21.713Z,31.88
2024-02-24T13:51:26.128Z,31.63
2024-02-24T13:53:27.785Z,30.96
2024-02-24T13:55:29.322Z,31.75
2024-02-24T13:57:30.898Z,31.31
2024-02-24T13:59:32.835Z,32.10
2024-02-24T14:01:35.795Z,32.36
2024-02-24T14:03:37.584Z,32.01
2024-02-24T14:05:41.103Z,32.37
2024-02-24T14:07:43.251Z,32.61
2024-02-24T14:09:45.066Z,32.28
2024-02-24T14:11:46.920Z,31.85
2024-02-24T14:13:48.413Z,31.65
2024-02-24T14:15:50.594Z,32.19
2024-02-24T14:17:52.141Z,31.68
2024-02-24T14:19:53.944Z,31.55
2024-02-24T14:21:55.497Z,31.65
2024-02-24T14:23:57.215Z,31.74
2024-02-24T14:25:59.110Z,31.45
2024-02-24T14:28:00.694Z,31.34
2024-02-24T14:30:02.406Z,31.26
2024-02-24T14:32:05.173Z,31.49
2024-02-24T14:34:06.794Z,31.74
2024-02-24T14:36:08.545Z,31.30
2024-02-24T14:38:10.092Z,31.09
2024-02-24T14:40:11.898Z,30.92
2024-02-24T14:42:13.460Z,30.70
2024-02-24T14:44:14.973Z,30.65
2024-02-24T14:46:16.490Z,30.60
2024-02-24T14:48:18.090Z,30.87
2024-02-24T14:50:19.782Z,30.61
2024-02-24T14:52:24.295Z,30.84
2024-02-24T14:54:27.594Z,31.00
2024-02-24T14:56:29.272Z,31.03
2024-02-24T14:58:30.812Z,31.05
2024-02-24T15:00:32.353Z,31.02
2024-02-24T15:02:45.567Z,31.14
2024-02-24T15:04:54.398Z,31.52
2024-02-24T15:06:56.125Z,31.74
2024-02-24T15:08:58.129Z,31.36
2024-02-24T15:10:59.856Z,31.41
2024-02-24T15:13:01.505Z,31.54
2024-02-24T15:15:04.607Z,31.51
2024-02-24T15:17:06.125Z,31.60
2024-02-24T15:19:07.625Z,31.72
2024-02-24T15:21:09.611Z,31.66
2024-02-24T15:23:11.111Z,31.84
2024-02-24T15:25:13.186Z,31.75
2024-02-24T15:27:17.246Z,31.78
2024-02-24T15:29:19.166Z,31.79
2024-02-24T15:31:20.913Z,31.47
2024-02-24T15:33:23.616Z,31.44
2024-02-24T15:35:25.851Z,31.40
2024-02-24T15:37:30.107Z,31.78
2024-02-24T15:39:31.578Z,31.39
2024-02-24T15:41:33.127Z,31.64
2024-02-24T15:43:34.842Z,31.69
2024-02-24T15:45:36.492Z,31.65
2024-02-24T15:47:38.171Z,31.39
2024-02-24T15:49:41.107Z,31.47
2024-02-24T15:51:42.883Z,31.55
2024-02-24T15:53:44.786Z,31.48
2024-02-24T15:55:46.410Z,31.71
2024-02-24T15:57:49.083Z,31.77
2024-02-24T15:59:50.631Z,31.71
2024-02-24T16:01:52.241Z,31.57
2024-02-24T16:03:54.140Z,31.73
2024-02-24T16:05:55.845Z,31.51
2024-02-24T16:07:57.431Z,31.86
2024-02-24T16:09:59.063Z,31.98
2024-02-24T16:12:00.633Z,31.67
2024-02-24T16:14:02.192Z,31.79
2024-02-24T16:16:08.166Z,32.02
2024-02-24T16:18:13.102Z,32.22
2024-02-24T16:20:15.629Z,32.28
2024-02-24T16:22:17.459Z,32.72
2024-02-24T16:24:19.299Z,32.53
2024-02-24T16:26:20.803Z,32.67
2024-02-24T16:28:22.311Z,32.65
2024-02-24T16:30:24.129Z,32.89
2024-02-24T16:32:26.378Z,33.67
2024-02-24T16:34:28.396Z,33.64
2024-02-24T16:36:30.131Z,33.75
2024-02-24T16:38:32.216Z,33.97
2024-02-24T16:40:33.935Z,33.75
2024-02-24T16:42:35.696Z,34.20
2024-02-24T16:44:37.943Z,34.04
2024-02-24T16:46:43.668Z,34.00
2024-02-24T16:48:45.476Z,34.52
2024-02-24T16:50:47.185Z,34.45
2024-02-24T16:52:48.795Z,34.81
2024-02-24T16:54:50.487Z,34.73
2024-02-24T16:56:52.122Z,34.83
2024-02-24T16:58:56.283Z,34.37
2024-02-24T17:00:57.994Z,34.42
2024-02-24T17:02:59.820Z,34.78
2024-02-24T17:05:01.554Z,34.49
2024-02-24T17:07:06.231Z,34.75
2024-02-24T17:09:09.917Z,35.25
2024-02-24T17:11:11.755Z,34.92
2024-02-24T17:13:13.431Z,34.84
2024-02-24T17:15:14.923Z,34.56
2024-02-24T17:17:16.974Z,34.82
2024-02-24T17:19:19.468Z,34.99
2024-02-24T17:21:21.450Z,34.66
2024-02-24T17:23:23.109Z,34.27
2024-02-24T17:25:24.637Z,34.30
2024-02-24T17:27:27.331Z,34.09
2024-02-24T17:29:29.239Z,34.40
2024-02-24T17:31:30.727Z,34.34
2024-02-24T17:33:32.221Z,33.80
2024-02-24T17:35:35.786Z,34.15
2024-02-24T17:37:37.632Z,34.31
2024-02-24T17:39:39.195Z,33.90
2024-02-24T17:41:40.800Z,33.90
2024-02-24T17:43:43.005Z,33.72
2024-02-24T17:45:44.502Z,33.72
2024-02-24T17:47:46.132Z,33.40
2024-02-24T17:49:47.723Z,33.27
2024-02-24T17:51:49.183Z,33.43
2024-02-24T17:53:50.926Z,33.05
2024-02-24T17:55:52.524Z,33.03
2024-02-24T17:57:54.031Z,33.01
2024-02-24T17:59:55.884Z,32.92
2024-02-24T18:01:57.821Z,32.94
2024-02-24T18:04:04.588Z,33.00
2024-02-24T18:06:06.321Z,32.50
2024-02-24T18:08:08.697Z,32.50
2024-02-24T18:10:11.095Z,32.72
2024-02-24T18:12:13.269Z,32.58
2024-02-24T18:14:15.337Z,32.31
2024-02-24T18:16:18.616Z,32.37
2024-02-24T18:18:20.236Z,32.65
2024-02-24T18:20:21.951Z,32.63
2024-02-24T18:22:23.623Z,32.45
2024-02-24T18:24:25.112Z,32.71
2024-02-24T18:26:26.612Z,32.33
2024-02-24T18:28:28.368Z,32.42
2024-02-24T18:30:29.858Z,32.43
2024-02-24T18:32:31.449Z,32.24
2024-02-24T18:34:33.222Z,32.46
2024-02-24T18:36:39.676Z,32.38
2024-02-24T18:38:41.440Z,32.30
2024-02-24T18:40:43.079Z,32.27
2024-02-24T18:42:44.734Z,32.30
2024-02-24T18:44:46.288Z,32.29
2024-02-24T18:46:47.987Z,32.39
2024-02-24T18:50:51.092Z,32.30
2024-02-24T18:52:52.558Z,32.35
2024-02-24T18:54:55.508Z,32.63
2024-02-24T18:56:57.272Z,32.49
2024-02-24T18:58:58.891Z,32.55
2024-02-24T19:01:02.134Z,32.58
2024-02-24T19:03:04.431Z,32.61
2024-02-24T19:05:07.201Z,32.70
2024-02-24T19:07:12.071Z,32.27
2024-02-24T19:09:13.682Z,32.44
2024-02-24T19:11:15.214Z,32.43
2024-02-24T19:13:16.746Z,32.39
2024-02-24T19:15:19.979Z,32.71
2024-02-24T19:17:21.923Z,32.69
2024-02-24T19:19:23.701Z,32.53
2024-02-24T19:21:28.360Z,32.55
2024-02-24T19:23:30.061Z,32.70
2024-02-24T19:25:31.665Z,32.31
2024-02-24T19:27:33.224Z,32.39
2024-02-24T19:29:34.786Z,32.58
2024-02-24T19:31:40.478Z,32.54
2024-02-24T19:33:42.105Z,32.32
2024-02-24T19:35:43.813Z,32.76
2024-02-24T19:37:45.401Z,32.51
2024-02-24T19:39:46.864Z,32.46
2024-02-24T19:41:51.193Z,32.60
2024-02-24T19:43:52.718Z,32.53
2024-02-24T19:45:54.351Z,32.39
2024-02-24T19:47:55.986Z,32.49
2024-02-24T19:49:57.887Z,32.58
2024-02-24T19:51:59.410Z,32.44
2024-02-24T19:54:00.955Z,32.68
2024-02-24T19:56:02.585Z,32.76
2024-02-24T19:58:13.799Z,32.53
2024-02-24T20:00:22.144Z,32.59
2024-02-24T20:02:24.041Z,32.80
2024-02-24T20:04:26.185Z,32.47
2024-02-24T20:06:31.397Z,32.40
2024-02-24T20:08:32.986Z,32.53
2024-02-24T20:10:34.539Z,32.88
2024-02-24T20:12:36.045Z,32.69
2024-02-24T20:14:37.706Z,32.40
2024-02-24T20:16:39.207Z,32.54
2024-02-24T20:18:40.989Z,32.86
2024-02-24T20:20:42.577Z,32.88
2024-02-24T20:22:44.871Z,32.67
2024-02-24T20:24:46.991Z,32.48
2024-02-24T20:26:51.821Z,32.41
2024-02-24T20:28:54.688Z,32.84
2024-02-24T20:30:56.182Z,32.87
2024-02-24T20:32:57.854Z,32.80
2024-02-24T20:35:02.695Z,32.64
2024-02-24T20:37:04.553Z,32.45
2024-02-24T20:39:07.143Z,32.55
2024-02-24T20:41:11.707Z,32.55
2024-02-24T20:43:13.638Z,32.89
2024-02-24T20:45:15.226Z,32.85
2024-02-24T20:47:16.752Z,32.75
2024-02-24T20:49:22.462Z,32.81
2024-02-24T20:51:28.019Z,32.55
2024-02-24T20:53:29.474Z,32.50
2024-02-24T20:55:31.035Z,32.63
2024-02-24T20:57:32.698Z,32.77
2024-02-24T20:59:34.489Z,33.02
2024-02-24T21:01:36.332Z,32.77
2024-02-24T21:03:37.998Z,32.92
2024-02-24T21:05:39.924Z,33.02
2024-02-24T21:07:41.513Z,32.63
2024-02-24T21:09:42.972Z,32.68
2024-02-24T21:11:44.627Z,32.70
2024-02-24T21:13:46.217Z,32.75
2024-02-24T21:15:47.680Z,32.79
2024-02-24T21:17:49.340Z,32.91
2024-02-24T21:19:51.018Z,32.96
2024-02-24T21:21:55.977Z,32.79
2024-02-24T21:23:58.683Z,32.67
2024-02-24T21:26:04.781Z,32.90
2024-02-24T21:28:07.928Z,33.04
2024-02-24T21:30:10.112Z,32.98
2024-02-24T21:32:11.629Z,32.61
2024-02-24T21:34:13.604Z,33.04
2024-02-24T21:36:15.302Z,32.65
2024-02-24T21:38:16.982Z,32.91
2024-02-24T21:40:18.487Z,32.88
2024-02-24T21:42:20.065Z,32.75
2024-02-24T21:44:21.638Z,32.70
2024-02-24T21:46:23.483Z,32.85
2024-02-24T21:48:25.096Z,32.96
2024-02-24T21:50:26.907Z,32.78
2024-02-24T21:52:28.564Z,32.71
2024-02-24T21:54:30.158Z,33.08
2024-02-24T21:56:35.120Z,32.91
2024-02-24T21:58:36.753Z,33.22
2024-02-24T22:00:39.754Z,32.83
2024-02-24T22:02:41.348Z,32.75
2024-02-24T22:04:42.830Z,32.88
2024-02-24T22:06:44.693Z,33.18
2024-02-24T22:08:46.393Z,32.95
2024-02-24T22:10:48.038Z,33.14
2024-02-24T22:12:50.859Z,32.90
2024-02-24T22:14:52.487Z,32.86
2024-02-24T22:16:54.373Z,32.83
2024-02-24T22:18:56.273Z,33.12
2024-02-24T22:21:01.279Z,32.98
2024-02-24T22:23:03.380Z,33.00
2024-02-24T22:25:05.005Z,33.10
2024-02-24T22:27:06.664Z,33.06
2024-02-24T22:29:08.187Z,32.74
2024-02-24T22:31:12.542Z,32.99
2024-02-24T22:35:20.518Z,32.92
2024-02-24T22:37:25.548Z,33.03
2024-02-24T22:39:27.265Z,32.83
2024-02-24T22:41:28.795Z,32.76
2024-02-24T22:43:30.908Z,32.95
2024-02-24T22:45:32.416Z,33.03
2024-02-24T22:49:41.063Z,32.87
2024-02-24T22:51:42.718Z,33.20
2024-02-24T22:53:44.220Z,33.07
2024-02-24T22:55:45.715Z,33.17
2024-02-24T22:57:47.435Z,33.30
2024-02-24T22:59:48.942Z,33.08
2024-02-24T23:01:50.562Z,32.85
2024-02-24T23:03:52.218Z,32.87
2024-02-24T23:05:53.874Z,33.10
2024-02-24T23:07:55.621Z,32.88
2024-02-24T23:09:57.028Z,33.19
2024-02-24T23:11:58.655Z,33.06
2024-02-24T23:14:00.662Z,33.23
2024-02-24T23:16:02.106Z,33.26
2024-02-24T23:18:03.828Z,33.03
2024-02-24T23:20:08.669Z,32.82
2024-02-24T23:22:10.179Z,33.04
2024-02-24T23:24:11.729Z,32.83
2024-02-24T23:26:13.226Z,33.25
2024-02-24T23:28:16.498Z,33.17
2024-02-24T23:30:17.982Z,33.15
2024-02-24T23:32:21.792Z,32.99
2024-02-24T23:34:23.379Z,33.16
2024-02-24T23:36:25.200Z,33.07
2024-02-24T23:38:26.791Z,32.92
2024-02-24T23:40:28.311Z,33.07
2024-02-24T23:42:29.788Z,33.07
2024-02-24T23:44:31.433Z,33.14
2024-02-24T23:46:33.013Z,33.06
2024-02-24T23:48:41.681Z,33.19
2024-02-24T23:50:43.636Z,33.01
2024-02-24T23:52:45.112Z,32.96
2024-02-24T23:54:46.689Z,33.14
2024-02-24T23:56:48.260Z,32.91
2024-02-24T23:58:50.624Z,33.08
